Time;durP1;ratioP1;P1;durP2;ratioP2;P2;SDS_P1;SDS_P2;PMS_P1;PMS_P2;Temp;Humidity;BMP_temperature;BMP_pressure;BME280_temperature;BME280_humidity;BME280_pressure;Samples;Min_cycle;Max_cycle;Signal;HPM_P1;HPM_P2
2021/12/20 00:01:06;;;;;;;15.63;3.92;;;;;;;;;;5046233;28;20044;-72
2021/12/20 00:03:32;;;;;;;16.30;3.63;;;;;;;;;;5039284;28;20033;-74
2021/12/20 00:05:57;;;;;;;24.08;6.97;;;;;;;;;;5039294;28;20026;-73
2021/12/20 00:08:23;;;;;;;21.38;4.75;;;;;;;;;;5046117;28;20107;-72
2021/12/20 00:10:49;;;;;;;14.18;4.63;;;;;;;;;;5025659;28;20021;-72
2021/12/20 00:13:16;;;;;;;14.25;4.88;;;;;;;;;;5044482;28;20483;-72
2021/12/20 00:15:44;;;;;;;20.70;6.55;;;;;;;;;;5041970;28;20036;-73
2021/12/20 00:18:10;;;;;;;12.90;3.55;;;;;;;;;;5037503;28;20026;-72
2021/12/20 00:20:36;;;;;;;14.20;4.95;;;;;;;;;;5048358;28;20025;-72
2021/12/20 00:23:04;;;;;;;10.68;3.65;;;;;;;;;;5039161;28;20021;-72
2021/12/20 00:25:30;;;;;;;17.42;4.13;;;;;;;;;;5045524;28;20462;-72
2021/12/20 00:27:56;;;;;;;12.07;4.40;;;;;;;;;;5045905;28;20055;-72
2021/12/20 00:30:22;;;;;;;10.10;2.30;;;;;;;;;;5039416;28;20036;-72
2021/12/20 00:32:48;;;;;;;29.65;9.50;;;;;;;;;;5051068;28;20036;-73
2021/12/20 00:35:17;;;;;;;22.48;6.72;;;;;;;;;;5040082;28;20527;-72
2021/12/20 00:40:28;;;;;;;24.13;5.38;;;;;;;;;;5051724;28;20044;-72
2021/12/20 00:42:56;;;;;;;16.77;4.72;;;;;;;;;;5038222;28;20471;-71
2021/12/20 00:45:23;;;;;;;17.75;5.32;;;;;;;;;;5047092;28;20036;-72
2021/12/20 00:47:49;;;;;;;16.80;4.57;;;;;;;;;;5046025;28;20086;-71
2021/12/20 00:50:16;;;;;;;17.55;3.42;;;;;;;;;;5040146;28;20480;-72
2021/12/20 00:52:42;;;;;;;13.43;4.15;;;;;;;;;;5050844;28;20087;-73
2021/12/20 00:55:09;;;;;;;16.67;3.40;;;;;;;;;;5039795;28;20021;-73
2021/12/20 00:57:35;;;;;;;20.52;6.82;;;;;;;;;;5045648;28;20033;-72
2021/12/20 01:00:01;;;;;;;21.38;6.32;;;;;;;;;;5047392;28;20039;-72
2021/12/20 01:02:27;;;;;;;19.98;7.00;;;;;;;;;;5037848;28;20021;-73
2021/12/20 01:04:53;;;;;;;15.57;5.13;;;;;;;;;;5049008;28;20096;-73
2021/12/20 01:07:19;;;;;;;18.02;5.20;;;;;;;;;;5040166;28;20079;-72
2021/12/20 01:09:45;;;;;;;9.30;2.40;;;;;;;;;;5040075;28;20097;-72
2021/12/20 01:12:17;;;;;;;14.73;4.10;;;;;;;;;;5041638;28;20057;-72
2021/12/20 01:14:44;;;;;;;15.77;5.72;;;;;;;;;;5038215;28;20387;-72
2021/12/20 01:17:10;;;;;;;22.42;7.13;;;;;;;;;;5048265;28;20025;-72
2021/12/20 01:19:36;;;;;;;20.30;5.32;;;;;;;;;;5042067;28;20436;-72
2021/12/20 01:22:03;;;;;;;12.40;4.25;;;;;;;;;;5040741;28;20487;-72
2021/12/20 01:24:29;;;;;;;15.98;3.90;;;;;;;;;;5049661;28;20106;-72
2021/12/20 01:26:55;;;;;;;13.38;4.28;;;;;;;;;;5037941;28;20119;-72
2021/12/20 01:29:21;;;;;;;14.85;4.07;;;;;;;;;;5046848;28;20151;-72
2021/12/20 01:31:47;;;;;;;16.73;4.80;;;;;;;;;;5043394;28;20086;-72
2021/12/20 01:34:13;;;;;;;8.73;2.10;;;;;;;;;;5037717;28;20457;-72
2021/12/20 01:36:39;;;;;;;13.00;4.50;;;;;;;;;;5048184;28;20552;-72
2021/12/20 01:39:06;;;;;;;8.05;2.38;;;;;;;;;;5037462;28;20056;-73
2021/12/20 01:41:32;;;;;;;10.25;3.05;;;;;;;;;;5044373;28;20505;-73
2021/12/20 01:43:58;;;;;;;13.57;3.13;;;;;;;;;;5045069;28;20402;-72
2021/12/20 01:46:24;;;;;;;8.90;2.28;;;;;;;;;;5037418;28;20442;-73
2021/12/20 01:48:51;;;;;;;8.30;2.42;;;;;;;;;;5050059;28;20402;-72
2021/12/20 01:52:10;;;;;;;11.13;2.70;;;;;;;;;;5039976;28;20095;-72
2021/12/20 01:54:03;;;;;;;8.82;2.67;;;;;;;;;;5031649;28;20033;-72
2021/12/20 01:56:32;;;;;;;4.85;1.35;;;;;;;;;;5049594;28;20032;-72
2021/12/20 01:59:02;;;;;;;3.80;1.05;;;;;;;;;;5037373;28;20017;-72
2021/12/20 02:01:28;;;;;;;4.00;1.38;;;;;;;;;;5044794;28;20022;-72
2021/12/20 02:03:58;;;;;;;8.18;2.15;;;;;;;;;;5044381;28;20017;-73
2021/12/20 02:06:47;;;;;;;8.18;2.20;;;;;;;;;;5035502;28;20025;-72
2021/12/20 02:09:14;;;;;;;8.25;2.20;;;;;;;;;;5025591;28;20100;-73
2021/12/20 02:11:41;;;;;;;4.88;1.58;;;;;;;;;;5043464;28;20024;-72
2021/12/20 02:14:08;;;;;;;7.80;1.70;;;;;;;;;;5038505;28;20022;-73
2021/12/20 02:16:34;;;;;;;6.85;2.00;;;;;;;;;;5047964;28;20032;-72
2021/12/20 02:19:04;;;;;;;11.70;3.08;;;;;;;;;;5031405;28;20029;-72
2021/12/20 02:21:31;;;;;;;7.70;1.88;;;;;;;;;;5039895;28;20111;-73
2021/12/20 02:23:56;;;;;;;12.10;3.85;;;;;;;;;;5038625;28;20418;-72
2021/12/20 02:26:23;;;;;;;10.77;2.67;;;;;;;;;;5048247;28;20031;-71
2021/12/20 02:28:52;;;;;;;12.98;4.35;;;;;;;;;;5034640;28;20029;-74
2021/12/20 02:39:22;;;;;;;17.10;4.65;;;;;;;;;;5045539;28;20029;-73
2021/12/20 02:41:48;;;;;;;13.40;3.00;;;;;;;;;;5043827;28;20029;-73
2021/12/20 02:44:19;;;;;;;14.32;4.10;;;;;;;;;;5036775;28;20022;-74
2021/12/20 02:46:52;;;;;;;15.98;4.22;;;;;;;;;;5048840;28;20100;-72
2021/12/20 02:49:23;;;;;;;11.77;3.40;;;;;;;;;;5039139;28;20039;-72
2021/12/20 02:51:50;;;;;;;11.30;3.10;;;;;;;;;;5039656;28;20025;-72
2021/12/20 02:54:16;;;;;;;17.02;5.13;;;;;;;;;;5045051;28;20033;-72
2021/12/20 02:56:42;;;;;;;13.23;4.15;;;;;;;;;;5035642;28;20439;-72
2021/12/20 02:59:09;;;;;;;11.98;2.13;;;;;;;;;;5046338;28;20076;-73
2021/12/20 03:01:36;;;;;;;6.72;2.00;;;;;;;;;;5041411;28;20021;-73
2021/12/20 03:04:03;;;;;;;10.73;3.30;;;;;;;;;;5038279;28;20109;-71
2021/12/20 03:06:38;;;;;;;20.50;5.55;;;;;;;;;;5048663;28;20062;-73
2021/12/20 03:09:05;;;;;;;14.48;3.50;;;;;;;;;;5036857;28;20052;-72
2021/12/20 03:11:31;;;;;;;11.13;2.67;;;;;;;;;;5040971;28;20120;-73
2021/12/20 03:14:08;;;;;;;9.52;3.13;;;;;;;;;;5039022;28;20462;-73
2021/12/20 03:16:34;;;;;;;11.95;3.50;;;;;;;;;;5048329;28;20432;-73
2021/12/20 03:19:01;;;;;;;12.75;2.60;;;;;;;;;;5036006;28;20509;-73
2021/12/20 03:21:27;;;;;;;13.57;3.72;;;;;;;;;;5043668;28;20053;-73
2021/12/20 03:23:53;;;;;;;12.73;3.40;;;;;;;;;;5042793;28;20017;-72
2021/12/20 03:26:19;;;;;;;12.30;2.63;;;;;;;;;;5036381;28;20431;-72
2021/12/20 03:28:45;;;;;;;11.23;2.58;;;;;;;;;;5048044;28;20025;-73
2021/12/20 03:31:12;;;;;;;22.17;7.63;;;;;;;;;;5037188;28;20061;-73
2021/12/20 03:33:38;;;;;;;8.10;2.85;;;;;;;;;;5041048;28;20017;-73
2021/12/20 03:36:04;;;;;;;10.23;2.97;;;;;;;;;;5041676;28;20032;-72
2021/12/20 03:38:30;;;;;;;9.32;3.28;;;;;;;;;;5033547;28;20029;-72
2021/12/20 03:40:56;;;;;;;11.23;2.85;;;;;;;;;;5047519;28;20028;-72
2021/12/20 03:43:30;;;;;;;16.13;4.60;;;;;;;;;;5037815;28;20055;-72
2021/12/20 03:45:57;;;;;;;18.38;3.42;;;;;;;;;;5039437;28;20017;-73
2021/12/20 03:48:23;;;;;;;12.23;4.07;;;;;;;;;;5047144;28;20049;-72
2021/12/20 03:50:49;;;;;;;16.17;4.03;;;;;;;;;;5035208;28;20029;-73
2021/12/20 03:53:15;;;;;;;8.73;2.28;;;;;;;;;;5044270;28;20022;-73
2021/12/20 03:55:41;;;;;;;17.98;3.60;;;;;;;;;;5040552;28;20422;-73
2021/12/20 03:58:07;;;;;;;13.15;2.70;;;;;;;;;;5037376;28;20025;-73
2021/12/20 04:00:33;;;;;;;17.02;3.83;;;;;;;;;;5047542;28;20025;-73
2021/12/20 04:02:59;;;;;;;7.03;2.45;;;;;;;;;;5034917;28;20021;-74
2021/12/20 04:05:25;;;;;;;10.38;2.53;;;;;;;;;;5042940;28;20472;-72
2021/12/20 04:07:51;;;;;;;11.00;2.35;;;;;;;;;;5042648;28;20112;-73
2021/12/20 04:10:17;;;;;;;14.98;3.42;;;;;;;;;;5027987;28;20134;-72
2021/12/20 04:12:43;;;;;;;17.13;2.97;;;;;;;;;;5044653;28;20420;-71
2021/12/20 04:15:09;;;;;;;9.50;2.55;;;;;;;;;;5034504;28;20036;-72
2021/12/20 04:17:35;;;;;;;12.40;3.70;;;;;;;;;;5041627;28;20068;-71
2021/12/20 04:20:02;;;;;;;10.80;3.00;;;;;;;;;;5043852;28;20068;-71
2021/12/20 04:22:28;;;;;;;11.25;2.80;;;;;;;;;;5034486;28;20057;-72
2021/12/20 04:24:54;;;;;;;9.27;1.90;;;;;;;;;;5045538;28;20316;-72
2021/12/20 04:27:19;;;;;;;11.85;2.85;;;;;;;;;;5034296;28;20467;-71
2021/12/20 04:29:47;;;;;;;7.50;1.98;;;;;;;;;;5041487;28;20036;-72
2021/12/20 04:32:12;;;;;;;11.20;3.10;;;;;;;;;;5036653;28;20053;-71
2021/12/20 04:34:38;;;;;;;8.40;2.20;;;;;;;;;;5046424;28;20483;-70
2021/12/20 04:37:07;;;;;;;9.25;2.00;;;;;;;;;;5052310;22;20487;-71
2021/12/20 04:39:33;;;;;;;15.20;3.47;;;;;;;;;;5029490;28;20024;-71
2021/12/20 04:42:00;;;;;;;19.63;4.05;;;;;;;;;;5029564;28;20017;-71
2021/12/20 04:44:26;;;;;;;15.73;4.18;;;;;;;;;;5030051;28;20018;-71
2021/12/20 04:46:52;;;;;;;7.95;2.17;;;;;;;;;;5014050;28;20028;-71
2021/12/20 04:49:18;;;;;;;9.95;2.95;;;;;;;;;;5023689;28;20026;-70
2021/12/20 04:51:44;;;;;;;13.25;4.05;;;;;;;;;;5019935;28;20032;-71
2021/12/20 04:54:10;;;;;;;13.05;5.35;;;;;;;;;;5016001;28;20034;-70
2021/12/20 04:56:37;;;;;;;9.40;2.25;;;;;;;;;;5027347;28;20026;-71
2021/12/20 04:59:03;;;;;;;12.15;2.60;;;;;;;;;;5015878;28;20490;-71
2021/12/20 05:01:29;;;;;;;9.35;1.77;;;;;;;;;;5022245;28;20108;-70
2021/12/20 05:03:55;;;;;;;12.43;2.83;;;;;;;;;;5022288;28;20104;-71
2021/12/20 05:06:21;;;;;;;11.77;2.83;;;;;;;;;;5015097;28;20482;-71
2021/12/20 05:08:50;;;;;;;7.82;2.03;;;;;;;;;;5031051;28;20374;-71
2021/12/20 05:11:16;;;;;;;7.78;2.45;;;;;;;;;;5024368;28;20610;-70
2021/12/20 05:13:43;;;;;;;12.70;2.90;;;;;;;;;;5024761;28;20151;-71
2021/12/20 05:16:08;;;;;;;7.43;2.20;;;;;;;;;;5020120;28;20029;-72
2021/12/20 05:18:35;;;;;;;12.88;3.38;;;;;;;;;;5029588;28;20502;-71
2021/12/20 05:21:01;;;;;;;15.02;3.13;;;;;;;;;;5029078;28;20073;-70
2021/12/20 05:23:27;;;;;;;10.25;3.25;;;;;;;;;;5021360;28;20475;-72
2021/12/20 05:25:53;;;;;;;13.27;4.43;;;;;;;;;;5022092;28;20030;-70
2021/12/20 05:28:19;;;;;;;12.25;3.20;;;;;;;;;;5029458;28;20028;-71
2021/12/20 05:30:49;;;;;;;5.63;1.58;;;;;;;;;;5017250;28;20034;-70
2021/12/20 05:33:15;;;;;;;11.67;2.87;;;;;;;;;;5028901;28;20025;-71
2021/12/20 05:35:41;;;;;;;12.68;2.53;;;;;;;;;;5023679;28;20092;-71
2021/12/20 05:38:07;;;;;;;9.20;2.92;;;;;;;;;;5027182;28;20071;-71
2021/12/20 05:40:35;;;;;;;9.95;3.05;;;;;;;;;;5017204;28;20030;-72
2021/12/20 05:43:01;;;;;;;13.60;3.50;;;;;;;;;;5027193;28;20026;-71
2021/12/20 05:45:26;;;;;;;10.35;3.58;;;;;;;;;;5021399;28;20095;-71
2021/12/20 05:47:52;;;;;;;12.68;3.80;;;;;;;;;;5022213;28;20460;-71
2021/12/20 05:50:19;;;;;;;18.38;4.65;;;;;;;;;;5029674;28;20124;-72
2021/12/20 05:52:46;;;;;;;16.35;5.43;;;;;;;;;;5015996;28;20040;-71
2021/12/20 05:55:12;;;;;;;15.57;5.05;;;;;;;;;;5027696;28;20021;-71
2021/12/20 05:57:38;;;;;;;15.35;3.95;;;;;;;;;;5024134;28;20032;-71
2021/12/20 06:00:06;;;;;;;15.48;4.00;;;;;;;;;;5020906;28;20149;-70
2021/12/20 06:02:32;;;;;;;16.80;4.63;;;;;;;;;;5030993;28;20026;-71
2021/12/20 06:04:58;;;;;;;15.30;4.55;;;;;;;;;;5016091;28;20480;-70
2021/12/20 06:07:25;;;;;;;11.88;2.72;;;;;;;;;;5024741;28;20025;-71
2021/12/20 06:09:50;;;;;;;14.80;3.38;;;;;;;;;;5019478;28;20566;-71
2021/12/20 06:12:16;;;;;;;11.07;2.78;;;;;;;;;;5027638;28;20065;-71
2021/12/20 06:14:42;;;;;;;20.38;4.60;;;;;;;;;;5015578;28;20400;-71
2021/12/20 06:17:08;;;;;;;12.18;2.70;;;;;;;;;;5026951;28;20022;-72
2021/12/20 06:19:34;;;;;;;8.80;2.80;;;;;;;;;;5021479;28;20041;-71
2021/12/20 06:22:00;;;;;;;12.60;2.60;;;;;;;;;;5019961;28;20443;-71
2021/12/20 06:24:27;;;;;;;13.50;2.92;;;;;;;;;;5028123;28;20061;-71
2021/12/20 06:26:53;;;;;;;15.43;4.07;;;;;;;;;;5015895;28;20030;-71
2021/12/20 06:29:19;;;;;;;8.25;2.63;;;;;;;;;;5025458;28;20026;-71
2021/12/20 06:31:46;;;;;;;14.55;3.38;;;;;;;;;;5021853;28;20031;-72
2021/12/20 06:34:12;;;;;;;9.88;2.60;;;;;;;;;;5017674;28;20030;-71
2021/12/20 06:36:38;;;;;;;11.90;2.90;;;;;;;;;;5028872;28;20099;-72
2021/12/20 06:39:05;;;;;;;13.48;3.40;;;;;;;;;;5015682;28;20384;-72
2021/12/20 06:41:31;;;;;;;13.18;3.67;;;;;;;;;;5021884;28;20030;-73
2021/12/20 06:43:57;;;;;;;9.88;2.78;;;;;;;;;;5022591;28;20079;-72
2021/12/20 06:46:23;;;;;;;12.30;3.10;;;;;;;;;;5016571;28;20022;-70
2021/12/20 06:48:49;;;;;;;14.88;3.42;;;;;;;;;;5028668;28;20309;-71
2021/12/20 06:51:15;;;;;;;5.93;2.40;;;;;;;;;;5018583;28;20026;-70
2021/12/20 06:53:41;;;;;;;11.00;2.40;;;;;;;;;;5020879;28;20021;-70
2021/12/20 06:56:07;;;;;;;14.18;3.30;;;;;;;;;;5025677;28;20624;-71
2021/12/20 06:58:33;;;;;;;11.55;3.00;;;;;;;;;;5015351;28;20109;-71
2021/12/20 07:00:59;;;;;;;13.80;4.75;;;;;;;;;;5027896;28;20014;-71
2021/12/20 07:03:25;;;;;;;15.98;4.63;;;;;;;;;;5019335;28;20143;-71
2021/12/20 07:05:51;;;;;;;8.95;3.65;;;;;;;;;;5020212;28;20141;-71
2021/12/20 07:08:17;;;;;;;11.27;3.33;;;;;;;;;;5021707;28;20060;-69
2021/12/20 07:10:43;;;;;;;15.50;3.30;;;;;;;;;;5016515;28;20495;-71
2021/12/20 07:13:10;;;;;;;15.68;3.65;;;;;;;;;;5021679;28;20498;-70
2021/12/20 07:15:37;;;;;;;10.27;2.90;;;;;;;;;;5021959;28;20031;-71
2021/12/20 07:18:03;;;;;;;16.98;3.28;;;;;;;;;;5017653;28;20034;-70
2021/12/20 07:20:29;;;;;;;7.72;2.60;;;;;;;;;;5026840;28;20032;-71
2021/12/20 07:22:55;;;;;;;16.10;3.30;;;;;;;;;;5013937;28;20017;-71
2021/12/20 07:25:22;;;;;;;15.82;2.90;;;;;;;;;;5022908;28;20071;-72
2021/12/20 07:27:48;;;;;;;14.32;2.88;;;;;;;;;;5017973;28;20513;-70
2021/12/20 07:30:15;;;;;;;13.88;4.75;;;;;;;;;;5027029;28;20337;-71
2021/12/20 07:32:41;;;;;;;12.75;2.38;;;;;;;;;;5028802;28;20041;-70
2021/12/20 07:35:07;;;;;;;12.90;4.22;;;;;;;;;;5016927;28;20443;-72
2021/12/20 07:37:33;;;;;;;10.40;4.13;;;;;;;;;;5022318;28;20034;-71
2021/12/20 07:39:59;;;;;;;7.82;2.20;;;;;;;;;;5023841;28;20475;-70
2021/12/20 07:42:25;;;;;;;11.07;2.78;;;;;;;;;;5015391;28;20029;-71
2021/12/20 07:44:51;;;;;;;9.32;2.80;;;;;;;;;;5027305;28;20022;-70
2021/12/20 07:47:17;;;;;;;12.15;4.00;;;;;;;;;;5018153;28;20383;-71
2021/12/20 07:49:43;;;;;;;12.57;3.78;;;;;;;;;;5021254;28;20033;-70
2021/12/20 07:52:09;;;;;;;10.85;3.80;;;;;;;;;;5025636;28;20030;-71
2021/12/20 07:54:35;;;;;;;16.75;4.10;;;;;;;;;;5013923;28;20400;-71
2021/12/20 07:57:01;;;;;;;8.25;3.03;;;;;;;;;;5026449;28;20140;-71
2021/12/20 07:59:27;;;;;;;11.07;2.90;;;;;;;;;;5019103;28;20041;-70
2021/12/20 08:01:53;;;;;;;10.40;3.20;;;;;;;;;;5019863;28;20042;-71
2021/12/20 08:04:21;;;;;;;14.10;3.28;;;;;;;;;;5026081;28;20018;-71
2021/12/20 08:06:47;;;;;;;9.85;3.65;;;;;;;;;;5014423;28;20022;-71
2021/12/20 08:09:14;;;;;;;14.98;4.55;;;;;;;;;;5024393;28;20030;-71
2021/12/20 08:11:40;;;;;;;11.63;3.40;;;;;;;;;;5020794;28;20025;-71
2021/12/20 08:14:06;;;;;;;15.02;3.83;;;;;;;;;;5023908;28;20033;-70
2021/12/20 08:16:32;;;;;;;14.40;3.38;;;;;;;;;;5014293;28;20033;-69
2021/12/20 08:18:58;;;;;;;12.63;3.90;;;;;;;;;;5026472;28;20026;-70
2021/12/20 08:21:24;;;;;;;13.82;4.30;;;;;;;;;;5017414;28;20021;-69
2021/12/20 08:23:50;;;;;;;8.55;3.30;;;;;;;;;;5017802;28;20037;-69
2021/12/20 08:26:17;;;;;;;10.35;3.90;;;;;;;;;;5025663;28;20580;-69
2021/12/20 08:28:42;;;;;;;10.52;3.33;;;;;;;;;;5013399;28;20029;-69
2021/12/20 08:31:09;;;;;;;6.78;3.08;;;;;;;;;;5024894;28;20387;-69
2021/12/20 08:33:36;;;;;;;9.52;4.25;;;;;;;;;;5019167;28;20018;-68
2021/12/20 08:36:03;;;;;;;16.60;4.85;;;;;;;;;;5017366;28;20030;-69
2021/12/20 08:38:29;;;;;;;10.30;3.60;;;;;;;;;;5026509;28;20461;-70
2021/12/20 08:40:55;;;;;;;13.00;4.00;;;;;;;;;;5013673;28;20017;-69
2021/12/20 08:43:22;;;;;;;15.52;3.97;;;;;;;;;;5025630;28;20030;-69
2021/12/20 08:45:48;;;;;;;9.48;3.80;;;;;;;;;;5025480;28;20120;-69
2021/12/20 08:48:14;;;;;;;10.68;3.17;;;;;;;;;;5020103;28;20037;-70
2021/12/20 08:50:40;;;;;;;6.25;2.70;;;;;;;;;;5031036;28;20080;-69
2021/12/20 08:53:06;;;;;;;14.98;4.05;;;;;;;;;;5019529;28;20072;-69
2021/12/20 08:55:33;;;;;;;10.35;3.35;;;;;;;;;;5024984;28;20365;-69
2021/12/20 08:57:59;;;;;;;8.32;3.67;;;;;;;;;;5026639;28;20124;-71
2021/12/20 09:00:27;;;;;;;11.75;3.55;;;;;;;;;;5025553;28;20042;-72
2021/12/20 09:02:53;;;;;;;11.48;3.13;;;;;;;;;;5025270;28;20441;-70
2021/12/20 09:05:19;;;;;;;17.23;4.05;;;;;;;;;;5017416;28;20100;-70
2021/12/20 09:07:45;;;;;;;12.52;3.92;;;;;;;;;;5028090;28;20028;-70
2021/12/20 09:10:12;;;;;;;9.20;3.15;;;;;;;;;;5025528;28;20407;-71
2021/12/20 09:12:38;;;;;;;10.32;4.65;;;;;;;;;;5025482;28;20464;-71
2021/12/20 09:15:05;;;;;;;14.30;3.30;;;;;;;;;;5017986;28;20468;-70
2021/12/20 09:17:31;;;;;;;9.43;2.90;;;;;;;;;;5017341;28;20026;-71
2021/12/20 09:19:57;;;;;;;9.32;3.25;;;;;;;;;;5027623;28;20108;-70
2021/12/20 09:22:28;;;;;;;10.13;3.88;;;;;;;;;;5023614;28;20029;-71
2021/12/20 09:24:55;;;;;;;11.88;3.38;;;;;;;;;;5019764;28;20118;-70
2021/12/20 09:27:21;;;;;;;15.10;3.67;;;;;;;;;;5015141;28;20423;-71
2021/12/20 09:29:47;;;;;;;10.63;3.60;;;;;;;;;;5027690;28;20029;-71
2021/12/20 09:32:13;;;;;;;9.40;3.15;;;;;;;;;;5021491;28;20523;-70
2021/12/20 09:34:39;;;;;;;16.33;4.18;;;;;;;;;;5025003;28;20163;-70
2021/12/20 09:37:07;;;;;;;9.45;3.65;;;;;;;;;;5018046;28;20500;-70
2021/12/20 09:39:37;;;;;;;15.25;3.63;;;;;;;;;;5029848;28;20550;-72
2021/12/20 09:42:03;;;;;;;6.85;2.88;;;;;;;;;;5021004;28;20026;-71
2021/12/20 09:44:30;;;;;;;11.50;4.25;;;;;;;;;;5022138;28;20029;-71
2021/12/20 09:46:56;;;;;;;14.90;4.15;;;;;;;;;;5027530;28;20026;-71
2021/12/20 09:49:23;;;;;;;6.13;2.72;;;;;;;;;;5016856;28;20022;-72
2021/12/20 09:51:50;;;;;;;11.13;4.13;;;;;;;;;;5027676;28;20026;-71
2021/12/20 09:54:16;;;;;;;10.45;3.15;;;;;;;;;;5019215;28;20013;-71
2021/12/20 09:56:42;;;;;;;8.70;3.50;;;;;;;;;;5020026;28;20033;-72
2021/12/20 09:59:10;;;;;;;10.20;3.70;;;;;;;;;;5026461;28;20128;-71
2021/12/20 10:01:36;;;;;;;16.02;4.40;;;;;;;;;;5016034;28;20382;-71
2021/12/20 10:04:04;;;;;;;13.38;3.20;;;;;;;;;;5023213;28;20029;-71
2021/12/20 10:06:30;;;;;;;10.48;3.33;;;;;;;;;;5020820;28;20032;-71
2021/12/20 10:09:03;;;;;;;16.77;4.03;;;;;;;;;;5027350;28;20025;-70
2021/12/20 10:11:30;;;;;;;9.57;3.03;;;;;;;;;;5016496;28;20030;-71
2021/12/20 10:14:05;;;;;;;13.23;3.97;;;;;;;;;;5026292;28;20399;-73
2021/12/20 10:16:31;;;;;;;12.40;4.18;;;;;;;;;;5022320;28;20029;-71
2021/12/20 10:18:59;;;;;;;11.88;3.55;;;;;;;;;;5018220;28;20028;-71
2021/12/20 10:21:40;;;;;;;12.88;3.60;;;;;;;;;;5027862;28;20033;-71
2021/12/20 10:24:07;;;;;;;20.38;4.25;;;;;;;;;;5017934;28;20503;-70
2021/12/20 10:26:45;;;;;;;10.50;3.85;;;;;;;;;;5021524;28;20022;-71
2021/12/20 10:29:19;;;;;;;15.18;3.60;;;;;;;;;;5029051;28;20105;-71
2021/12/20 10:31:45;;;;;;;9.48;2.83;;;;;;;;;;5017587;28;20036;-71
2021/12/20 10:34:13;;;;;;;16.27;3.88;;;;;;;;;;5023720;28;20029;-71
2021/12/20 10:36:49;;;;;;;12.48;3.42;;;;;;;;;;5047131;22;20056;-73
2021/12/20 10:39:15;;;;;;;12.40;3.55;;;;;;;;;;5010519;28;20057;-76
2021/12/20 10:41:49;;;;;;;13.13;3.42;;;;;;;;;;5012462;28;20427;-74
2021/12/20 10:44:18;;;;;;;17.67;3.60;;;;;;;;;;5011042;28;20030;-74
2021/12/20 10:46:47;;;;;;;65.72;30.98;;;;;;;;;;5012432;28;20095;-73
2021/12/20 10:49:18;;;;;;;59.97;22.00;;;;;;;;;;5012497;28;20361;-74
2021/12/20 10:51:53;;;;;;;40.50;15.77;;;;;;;;;;5011653;28;20026;-74
2021/12/20 10:54:22;;;;;;;16.35;6.75;;;;;;;;;;5011008;28;20034;-74
2021/12/20 10:56:48;;;;;;;52.63;21.60;;;;;;;;;;5010095;28;20025;-74
2021/12/20 10:59:14;;;;;;;45.72;18.17;;;;;;;;;;5011283;28;20372;-74
2021/12/20 11:04:25;;;;;;;36.95;15.43;;;;;;;;;;5011283;28;20022;-70
2021/12/20 11:07:01;;;;;;;18.70;5.70;;;;;;;;;;5010378;28;20185;-73
2021/12/20 11:09:31;;;;;;;15.93;4.95;;;;;;;;;;5011660;28;20044;-71
2021/12/20 11:12:01;;;;;;;14.80;5.13;;;;;;;;;;5010546;28;20026;-73
2021/12/20 11:14:30;;;;;;;28.70;10.70;;;;;;;;;;5010771;28;20030;-72
2021/12/20 11:16:57;;;;;;;28.08;10.70;;;;;;;;;;5011561;28;20034;-73
2021/12/20 11:19:23;;;;;;;21.58;8.90;;;;;;;;;;5011514;28;20026;-72
2021/12/20 11:21:53;;;;;;;39.55;12.68;;;;;;;;;;5011889;28;20172;-72
2021/12/20 11:24:21;;;;;;;42.35;18.60;;;;;;;;;;5009441;28;20081;-72
2021/12/20 11:26:47;;;;;;;26.60;8.70;;;;;;;;;;5011445;28;20022;-73
2021/12/20 11:29:14;;;;;;;49.20;15.32;;;;;;;;;;5011581;28;20025;-70
2021/12/20 11:31:40;;;;;;;11.93;4.07;;;;;;;;;;5010168;28;20113;-72
2021/12/20 11:34:06;;;;;;;16.15;6.28;;;;;;;;;;5009396;28;20064;-73
2021/12/20 11:36:32;;;;;;;33.40;11.50;;;;;;;;;;5011000;28;20033;-73
2021/12/20 11:38:58;;;;;;;25.83;9.45;;;;;;;;;;5011079;28;20033;-73
2021/12/20 11:41:28;;;;;;;21.75;8.43;;;;;;;;;;5011175;28;20107;-72
2021/12/20 11:43:55;;;;;;;48.03;18.60;;;;;;;;;;5010833;28;20472;-71
2021/12/20 11:46:22;;;;;;;32.25;11.55;;;;;;;;;;5011231;28;20026;-73
2021/12/20 11:48:50;;;;;;;25.55;10.00;;;;;;;;;;5011557;28;20037;-75
2021/12/20 11:51:16;;;;;;;23.48;9.02;;;;;;;;;;5012577;28;20030;-74
2021/12/20 11:53:42;;;;;;;28.60;11.15;;;;;;;;;;5011314;28;20546;-73
2021/12/20 11:56:08;;;;;;;38.50;15.63;;;;;;;;;;5010914;28;20037;-76
2021/12/20 11:58:35;;;;;;;18.23;7.22;;;;;;;;;;5020077;28;20022;-75
2021/12/20 12:01:02;;;;;;;19.63;7.38;;;;;;;;;;5012319;28;20025;-74
2021/12/20 12:03:29;;;;;;;36.45;13.95;;;;;;;;;;5015179;28;20460;-75
2021/12/20 12:05:56;;;;;;;34.13;12.82;;;;;;;;;;5026261;28;20034;-75
2021/12/20 12:08:36;;;;;;;26.67;9.02;;;;;;;;;;5013213;28;20041;-75
2021/12/20 12:11:05;;;;;;;36.85;13.32;;;;;;;;;;5027289;28;20064;-74
2021/12/20 12:14:20;;;;;;;26.42;9.45;;;;;;;;;;5010845;28;20033;-74
2021/12/20 12:16:53;;;;;;;24.67;8.82;;;;;;;;;;5011172;28;20034;-73
2021/12/20 12:19:35;;;;;;;14.90;6.30;;;;;;;;;;5029145;28;20144;-73
2021/12/20 12:22:01;;;;;;;38.25;13.77;;;;;;;;;;5011707;28;20030;-75
2021/12/20 12:24:44;;;;;;;19.75;8.18;;;;;;;;;;5011477;28;20112;-73
2021/12/20 12:27:26;;;;;;;29.30;10.85;;;;;;;;;;5011391;28;20018;-73
2021/12/20 12:30:11;;;;;;;22.83;9.05;;;;;;;;;;5016156;28;20030;-74
2021/12/20 12:32:37;;;;;;;17.95;5.75;;;;;;;;;;5014388;28;20633;-71
2021/12/20 12:35:04;;;;;;;12.32;5.05;;;;;;;;;;5014443;28;20022;-73
2021/12/20 12:37:37;;;;;;;25.02;7.30;;;;;;;;;;5014719;28;20030;-75
2021/12/20 12:40:25;;;;;;;21.33;6.85;;;;;;;;;;5014698;28;20026;-75
2021/12/20 12:42:55;;;;;;;15.70;6.53;;;;;;;;;;5013006;28;20018;-75
2021/12/20 12:45:40;;;;;;;19.15;7.28;;;;;;;;;;5014490;28;20361;-75
2021/12/20 12:48:26;;;;;;;126.13;50.28;;;;;;;;;;5014496;28;20057;-74
2021/12/20 12:50:52;;;;;;;34.03;13.55;;;;;;;;;;5014525;28;20045;-74
2021/12/20 12:53:36;;;;;;;52.33;18.98;;;;;;;;;;5013743;28;20022;-72
2021/12/20 12:56:21;;;;;;;60.90;23.75;;;;;;;;;;5014523;28;20029;-74
2021/12/20 12:59:07;;;;;;;24.02;10.10;;;;;;;;;;5014776;28;20030;-73
2021/12/20 13:01:33;;;;;;;25.08;9.25;;;;;;;;;;5014853;28;20050;-72
2021/12/20 13:03:59;;;;;;;24.02;10.63;;;;;;;;;;5016250;28;20029;-75
2021/12/20 13:06:25;;;;;;;24.70;9.30;;;;;;;;;;5015155;28;20040;-74
2021/12/20 13:08:53;;;;;;;26.65;7.65;;;;;;;;;;5014748;28;20137;-75
2021/12/20 13:11:23;;;;;;;26.13;8.52;;;;;;;;;;5013390;28;20479;-75
2021/12/20 13:13:54;;;;;;;25.83;9.38;;;;;;;;;;5013720;28;20373;-75
2021/12/20 13:16:26;;;;;;;39.75;14.70;;;;;;;;;;5014310;28;20038;-73
2021/12/20 13:18:53;;;;;;;;;;;;;;;;;;5014612;28;20136;-74
2021/12/20 13:21:35;;;;;;;30.00;10.52;;;;;;;;;;5013757;28;19905;-73
2021/12/20 13:24:02;;;;;;;33.85;13.35;;;;;;;;;;5013239;28;20063;-74
2021/12/20 13:26:31;;;;;;;20.80;7.40;;;;;;;;;;5013919;28;20480;-72
2021/12/20 13:29:00;;;;;;;43.95;18.15;;;;;;;;;;5014177;28;20081;-73
2021/12/20 13:31:26;;;;;;;59.58;24.83;;;;;;;;;;5010027;28;20033;-75
2021/12/20 13:33:58;;;;;;;34.58;13.30;;;;;;;;;;5013269;28;20443;-73
2021/12/20 13:36:26;;;;;;;28.35;11.07;;;;;;;;;;5013813;28;20547;-75
2021/12/20 13:38:54;;;;;;;21.48;7.38;;;;;;;;;;5013560;28;20042;-74
2021/12/20 13:41:22;;;;;;;16.50;5.50;;;;;;;;;;5011007;28;20112;-74
2021/12/20 13:43:51;;;;;;;26.13;8.48;;;;;;;;;;5012795;28;20058;-75
2021/12/20 13:46:28;;;;;;;30.42;12.30;;;;;;;;;;5013239;28;20030;-74
2021/12/20 13:48:54;;;;;;;37.88;13.80;;;;;;;;;;5012012;28;20017;-72
2021/12/20 13:51:21;;;;;;;12.27;3.92;;;;;;;;;;5013432;28;20393;-72
2021/12/20 13:53:47;;;;;;;25.80;7.80;;;;;;;;;;5012859;28;20032;-74
2021/12/20 13:56:13;;;;;;;57.65;22.23;;;;;;;;;;5010294;28;20114;-73
2021/12/20 13:58:40;;;;;;;62.65;22.60;;;;;;;;;;5012795;28;20034;-73
2021/12/20 14:01:07;;;;;;;28.08;11.18;;;;;;;;;;5012780;28;20060;-73
2021/12/20 14:03:37;;;;;;;14.38;5.47;;;;;;;;;;5012435;28;20061;-73
2021/12/20 14:06:03;;;;;;;24.20;7.35;;;;;;;;;;5013324;28;20052;-73
2021/12/20 14:08:29;;;;;;;60.65;23.13;;;;;;;;;;5013117;28;20105;-73
2021/12/20 14:10:55;;;;;;;46.40;17.45;;;;;;;;;;5011678;28;20065;-73
2021/12/20 14:13:22;;;;;;;32.63;13.27;;;;;;;;;;5011635;28;20153;-74
2021/12/20 14:15:49;;;;;;;20.10;7.35;;;;;;;;;;5011998;28;20018;-73
2021/12/20 14:18:16;;;;;;;35.75;13.82;;;;;;;;;;5009969;28;20499;-75
2021/12/20 14:20:47;;;;;;;32.10;13.07;;;;;;;;;;5013347;28;20032;-77
2021/12/20 14:23:13;;;;;;;;;;;;;;;;;;5013226;28;20026;-74
2021/12/20 14:25:41;;;;;;;35.88;13.88;;;;;;;;;;5012899;28;20327;-73
2021/12/20 14:28:08;;;;;;;21.25;5.65;;;;;;;;;;5012413;28;20025;-73
2021/12/20 14:30:35;;;;;;;24.25;8.73;;;;;;;;;;5013066;28;20148;-74
2021/12/20 14:33:16;;;;;;;14.32;4.85;;;;;;;;;;5010834;28;20034;-72
2021/12/20 14:35:49;;;;;;;8.07;3.35;;;;;;;;;;5012727;28;20119;-75
2021/12/20 14:38:27;;;;;;;12.88;4.70;;;;;;;;;;5011951;28;20042;-77
2021/12/20 14:40:53;;;;;;;15.60;5.78;;;;;;;;;;5012246;28;20026;-76
2021/12/20 14:43:21;;;;;;;12.40;3.75;;;;;;;;;;5010376;28;20042;-75
2021/12/20 14:45:53;;;;;;;29.88;11.93;;;;;;;;;;5012216;28;20017;-74
2021/12/20 14:48:22;;;;;;;27.27;9.70;;;;;;;;;;5012081;28;20028;-75